Time;durP1;ratioP1;P1;durP2;ratioP2;P2;SDS_P1;SDS_P2;PMS_P1;PMS_P2;Temp;Humidity;BMP_temperature;BMP_pressure;BME280_temperature;BME280_humidity;BME280_pressure;Samples;Min_cycle;Max_cycle;Signal;HPM_P1;HPM_P2
2021/06/21 00:01:10;;;;;;;10.10;6.50;;;25.50;66.00;;;;;;5076266;28;20029;-73
2021/06/21 00:03:35;;;;;;;14.85;6.70;;;25.50;68.90;;;;;;5076232;28;20165;-70
2021/06/21 00:06:01;;;;;;;17.60;6.47;;;25.50;67.30;;;;;;5076244;28;20017;-69
2021/06/21 00:08:27;;;;;;;13.65;6.55;;;25.50;69.80;;;;;;5076065;28;20029;-71
2021/06/21 00:10:52;;;;;;;16.52;6.63;;;25.50;72.70;;;;;;5075892;28;20032;-73
2021/06/21 00:13:18;;;;;;;17.13;7.22;;;25.50;74.90;;;;;;5076103;28;20044;-70
2021/06/21 00:15:44;;;;;;;15.02;6.80;;;25.50;78.60;;;;;;5075801;28;20082;-70
2021/06/21 00:18:14;;;;;;;13.40;6.93;;;25.40;79.40;;;;;;5076059;28;20009;-72
2021/06/21 00:20:40;;;;;;;8.70;6.55;;;25.50;79.70;;;;;;5075838;28;20029;-72
2021/06/21 00:23:06;;;;;;;13.20;6.20;;;25.30;73.30;;;;;;5075855;28;20389;-70
2021/06/21 00:25:32;;;;;;;11.68;6.50;;;;;;;;;;5075702;28;20032;-70
2021/06/21 00:27:58;;;;;;;16.13;6.50;;;;;;;;;;5075704;28;20021;-70
2021/06/21 00:30:24;;;;;;;11.73;6.60;;;;;;;;;;5075842;28;20464;-73
2021/06/21 00:32:51;;;;;;;13.32;7.05;;;;;;;;;;5075898;28;20021;-73
2021/06/21 00:35:17;;;;;;;16.08;6.25;;;;;;;;;;5075748;28;20025;-73
2021/06/21 00:37:44;;;;;;;12.43;6.45;;;;;;;;;;5075295;28;20027;-72
2021/06/21 00:40:11;;;;;;;14.75;6.82;;;;;;;;;;5075551;28;20079;-70
2021/06/21 00:42:40;;;;;;;17.10;6.90;;;;;;;;;;5075743;28;20044;-70
2021/06/21 00:45:06;;;;;;;14.75;7.47;;;;;;;;;;5075500;28;20028;-70
2021/06/21 00:47:32;;;;;;;12.18;7.28;;;;;;;;;;5075143;28;20480;-70
2021/06/21 00:49:58;;;;;;;16.60;6.57;;;;;;;;;;5074101;28;20020;-73
2021/06/21 00:52:24;;;;;;;17.35;6.88;;;;;;;;;;5075392;28;20024;-73
2021/06/21 00:54:59;;;;;;;17.38;7.15;;;;;;;;;;5075464;28;20024;-70
2021/06/21 00:57:27;;;;;;;19.67;6.38;;;;;;;;;;5075069;28;20048;-74
2021/06/21 00:59:53;;;;;;;19.02;7.20;;;;;;;;;;5071779;28;20035;-70
2021/06/21 01:02:21;;;;;;;13.63;6.93;;;;;;;;;;5072259;28;20400;-72
2021/06/21 01:04:47;;;;;;;17.30;7.25;;;;;;;;;;5072206;28;20060;-72
2021/06/21 01:07:13;;;;;;;13.07;6.75;;;;;;;;;;5073960;28;20036;-70
2021/06/21 01:09:39;;;;;;;13.75;6.53;;;;;;;;;;5074786;28;20029;-72
2021/06/21 01:12:09;;;;;;;17.45;6.63;;;;;;;;;;5074930;28;20042;-69
2021/06/21 01:14:43;;;;;;;14.77;7.32;;;;;;;;;;5074489;28;20384;-69
2021/06/21 01:17:19;;;;;;;12.07;6.97;;;;;;;;;;5074854;28;20495;-70
2021/06/21 01:20:03;;;;;;;15.00;7.22;;;;;;;;;;5074543;28;20024;-69
2021/06/21 01:22:32;;;;;;;16.00;6.82;;;;;;;;;;5074667;28;20079;-73
2021/06/21 01:25:04;;;;;;;12.27;7.53;;;;;;;;;;5074630;28;20028;-70
2021/06/21 01:27:38;;;;;;;20.98;7.97;;;;;;;;;;5074412;28;20031;-71
2021/06/21 01:30:04;;;;;;;15.00;6.93;;;;;;;;;;5074252;28;20024;-69
2021/06/21 01:32:42;;;;;;;15.60;7.40;;;;;;;;;;5074460;28;20476;-70
2021/06/21 01:35:11;;;;;;;16.38;7.53;;;;;;;;;;5074264;28;20025;-70
2021/06/21 01:37:37;;;;;;;13.55;8.13;;;;;;;;;;5074141;28;20024;-70
2021/06/21 01:40:05;;;;;;;16.23;6.78;;;;;;;;;;5073840;28;20048;-69
2021/06/21 01:42:32;;;;;;;12.63;7.03;;;;;;;;;;5073793;28;20146;-70
2021/06/21 01:45:02;;;;;;;14.00;7.00;;;;;;;;;;5074192;28;20103;-70
2021/06/21 01:47:29;;;;;;;15.75;7.07;;;;;;;;;;5074156;28;20090;-70
2021/06/21 01:49:56;;;;;;;11.98;7.35;;;;;;;;;;5073845;28;20024;-70
2021/06/21 01:52:22;;;;;;;13.55;7.47;;;;;;;;;;5074068;28;20028;-70
2021/06/21 01:54:50;;;;;;;13.50;6.97;;;;;;;;;;5074013;28;20048;-69
2021/06/21 01:57:20;;;;;;;25.40;7.40;;;;;;;;;;5074186;28;20028;-70
2021/06/21 01:59:49;;;;;;;16.25;6.47;;;;;;;;;;5073941;28;20027;-70
2021/06/21 02:02:15;;;;;;;14.55;5.95;;;;;;;;;;5073505;28;20081;-70
2021/06/21 02:04:42;;;;;;;19.17;6.70;;;;;;;;;;5074022;28;20024;-73
2021/06/21 02:07:08;;;;;;;18.88;6.45;;;;;;;;;;5073918;28;20439;-73
2021/06/21 02:09:35;;;;;;;16.73;6.63;;;;;;;;;;5073741;28;20100;-71
2021/06/21 02:12:01;;;;;;;18.85;6.90;;;;;;;;;;5073570;28;20031;-70
2021/06/21 02:14:29;;;;;;;18.17;6.60;;;;;;;;;;5073599;28;20028;-70
2021/06/21 02:16:56;;;;;;;19.50;7.00;;;;;;;;;;5072425;28;20120;-70
2021/06/21 02:19:26;;;;;;;16.95;7.20;;;;;;;;;;5072992;28;20020;-73
2021/06/21 02:21:52;;;;;;;22.23;7.40;;;;;;;;;;5073357;28;20024;-70
2021/06/21 02:24:19;;;;;;;19.05;7.50;;;;;;;;;;5073572;28;20029;-69
2021/06/21 02:26:46;;;;;;;22.30;7.25;;;;;;;;;;5073595;28;20020;-69
2021/06/21 02:29:12;;;;;;;18.67;7.53;;;;;;;;;;5073526;28;20052;-69
2021/06/21 02:31:38;;;;;;;17.40;7.68;;;;;;;;;;5073507;28;20024;-69
2021/06/21 02:34:04;;;;;;;16.13;6.93;;;;;;;;;;5073363;28;20046;-70
2021/06/21 02:36:31;;;;;;;20.73;7.75;;;;;;;;;;5073336;28;20103;-71
2021/06/21 02:38:59;;;;;;;18.52;7.43;;;;;;;;;;5073016;28;20381;-69
2021/06/21 02:41:25;;;;;;;15.57;7.25;;;;;;;;;;5073109;28;20051;-69
2021/06/21 02:43:51;;;;;;;16.08;7.05;;;;;;;;;;5073472;28;20024;-69
2021/06/21 02:46:17;;;;;;;19.98;7.25;;;;;;;;;;5073441;28;20420;-69
2021/06/21 02:48:43;;;;;;;14.55;7.47;;;;;;;;;;5072223;28;20028;-69
2021/06/21 02:51:12;;;;;;;17.65;7.10;;;;;;;;;;5073064;28;20021;-69
2021/06/21 02:53:58;;;;;;;21.17;7.38;;;;;;;;;;5073222;28;20437;-72
2021/06/21 02:56:38;;;;;;;17.15;6.85;;;;;;;;;;5073189;28;20052;-73
2021/06/21 02:59:06;;;;;;;15.38;6.95;;;;;;;;;;5073151;28;20029;-69
2021/06/21 03:01:33;;;;;;;20.05;7.13;;;;;;;;;;5072858;28;20541;-69
2021/06/21 03:04:00;;;;;;;17.73;7.68;;;;;;;;;;5073069;28;20082;-69
2021/06/21 03:06:27;;;;;;;17.00;7.60;;;;;;;;;;5073137;28;20461;-69
2021/06/21 03:08:53;;;;;;;18.02;7.50;;;;;;;;;;5072963;28;20024;-69
2021/06/21 03:11:20;;;;;;;20.88;7.80;;;;;;;;;;5072562;28;20090;-69
2021/06/21 03:13:52;;;;;;;18.98;7.80;;;;;;;;;;5072884;28;20481;-69
2021/06/21 03:16:18;;;;;;;20.38;7.60;;;;;;;;;;5073046;28;20047;-70
2021/06/21 03:18:47;;;;;;;16.20;7.10;;;;;;;;;;5071396;28;20473;-69
2021/06/21 03:21:13;;;;;;;19.60;7.80;;;;;;;;;;5072863;28;20385;-69
2021/06/21 03:23:39;;;;;;;21.55;7.40;;;;;;;;;;5073084;28;20029;-69
2021/06/21 03:26:05;;;;;;;16.00;7.15;;;;;;;;;;5072992;28;20542;-72
2021/06/21 03:28:32;;;;;;;20.90;7.40;;;;;;;;;;5072828;28;20032;-69
2021/06/21 03:30:59;;;;;;;18.52;7.80;;;;;;;;;;5074867;28;20023;-69
2021/06/21 03:33:26;;;;;;;18.08;7.00;;;;;;;;;;5076987;28;20082;-69
2021/06/21 03:35:52;;;;;;;20.00;7.53;;;;;;;;;;5076867;28;20438;-69
2021/06/21 03:38:20;;;;;;;17.13;6.80;;;;;;;;;;5076757;28;20056;-72
2021/06/21 03:40:48;;;;;;;16.73;7.60;;;;;;;;;;5076498;28;20052;-69
2021/06/21 03:43:14;;;;;;;21.58;9.40;;;;;;;;;;5076403;28;20150;-69
2021/06/21 03:45:41;;;;;;;20.42;7.82;;;;;;;;;;5076610;28;20060;-69
2021/06/21 03:48:07;;;;;;;29.45;8.90;;;;;;;;;;5076960;28;20024;-69
2021/06/21 03:50:34;;;;;;;23.75;8.02;;;;;;;;;;5076623;28;20024;-69
2021/06/21 03:53:00;;;;;;;22.30;7.78;;;;;;;;;;5076130;28;20393;-69
2021/06/21 03:55:26;;;;;;;19.08;7.93;;;;;;;;;;5076513;28;20108;-69
2021/06/21 03:57:54;;;;;;;31.85;7.78;;;;;;;;;;5076374;28;20019;-69
2021/06/21 04:00:22;;;;;;;28.10;7.93;;;;;;;;;;5076158;28;20479;-69
2021/06/21 04:02:48;;;;;;;24.00;7.43;;;;;;;;;;5076181;28;20036;-69
2021/06/21 04:05:15;;;;;;;14.88;6.68;;;;;;;;;;5076216;28;20098;-69
2021/06/21 04:07:41;;;;;;;18.98;7.22;;;;;;;;;;5076427;28;20032;-72
2021/06/21 04:10:08;;;;;;;22.45;6.85;;;;;;;;;;5076354;28;20478;-72
2021/06/21 04:12:36;;;;;;;19.35;6.40;;;;;;;;;;5075959;28;20024;-73
2021/06/21 04:15:02;;;;;;;17.88;6.70;;;;;;;;;;5075971;28;20027;-72
2021/06/21 04:17:28;;;;;;;17.67;7.32;;;;;;;;;;5076247;28;20021;-73
2021/06/21 04:19:54;;;;;;;15.45;6.40;;;;;;;;;;5075901;28;20100;-71
2021/06/21 04:22:20;;;;;;;15.02;6.63;;;;;;;;;;5075676;28;20035;-70
2021/06/21 04:24:46;;;;;;;20.17;6.82;;;;;;;;;;5075905;28;20029;-69
2021/06/21 04:27:13;;;;;;;15.27;6.82;;;;;;;;;;5075679;28;20024;-73
2021/06/21 04:29:39;;;;;;;24.50;7.15;;;;;;;;;;5075928;28;20030;-73
2021/06/21 04:32:05;;;;;;;21.50;7.32;;;;;;;;;;5074402;28;20025;-69
2021/06/21 04:34:32;;;;;;;20.58;6.43;;;;;;;;;;5075708;28;20032;-72
2021/06/21 04:36:58;;;;;;;20.67;7.35;;;;;;;;;;5075534;28;20024;-72
2021/06/21 04:39:24;;;;;;;22.33;6.85;;;;;;;;;;5075055;28;20032;-70
2021/06/21 04:41:50;;;;;;;29.52;6.85;;;;;;;;;;5074575;28;20040;-70
2021/06/21 04:44:16;;;;;;;22.05;6.50;;;;;;;;;;5075695;28;20069;-71
2021/06/21 04:46:42;;;;;;;24.45;6.93;;;;;;;;;;5075457;28;20056;-69
2021/06/21 04:49:12;;;;;;;20.95;6.20;;;;;;;;;;5075159;28;20048;-69
2021/06/21 04:51:40;;;;;;;25.75;7.15;;;;;;;;;;5075383;28;20111;-70
2021/06/21 04:54:06;;;;;;;24.27;6.68;;;;;;;;;;5075424;28;20032;-71
2021/06/21 04:56:34;;;;;;;17.92;6.18;;;;;;;;;;5075581;28;20029;-70
2021/06/21 04:59:00;;;;;;;22.20;6.53;;;;;;;;;;5075304;28;20476;-69
2021/06/21 05:01:26;;;;;;;19.58;6.35;;;;;;;;;;5075120;28;20496;-71
2021/06/21 05:03:52;;;;;;;21.35;6.50;;;;;;;;;;5075012;28;20028;-71
2021/06/21 05:06:18;;;;;;;22.20;6.20;;;;;;;;;;5074973;28;20104;-69
2021/06/21 05:08:44;;;;;;;23.48;6.78;;;;;;;;;;5074927;28;20586;-70
2021/06/21 05:11:10;;;;;;;22.05;6.32;;;;;;;;;;5074956;28;20017;-70
2021/06/21 05:13:36;;;;;;;31.20;7.10;;;;;;;;;;5074621;28;20020;-72
2021/06/21 05:16:02;;;;;;;20.88;5.90;;;;;;;;;;5074780;28;20473;-69
2021/06/21 05:18:28;;;;;;;21.98;6.15;;;;;;;;;;5072956;28;20039;-69
2021/06/21 05:20:54;;;;;;;34.03;7.03;;;;;;;;;;5071898;28;20036;-69
2021/06/21 05:23:20;;;;;;;23.88;6.70;;;;;;;;;;5072115;28;20471;-69
2021/06/21 05:25:46;;;;;;;21.42;6.13;;;;;;;;;;5074986;28;20104;-72
2021/06/21 05:28:12;;;;;;;31.38;6.95;;;;;;;;;;5074794;28;20024;-70
2021/06/21 05:30:39;;;;;;;25.50;7.35;;;;;;;;;;5074698;28;20541;-69
2021/06/21 05:33:05;;;;;;;18.60;6.32;;;;;;;;;;5074352;28;20468;-70
2021/06/21 05:35:31;;;;;;;23.95;6.43;;;;;;;;;;5074579;28;20029;-69
2021/06/21 05:37:57;;;;;;;30.70;6.22;;;;;;;;;;5073162;28;20489;-69
2021/06/21 05:40:23;;;;;;;18.95;6.22;;;;;;;;;;5074102;28;20519;-69
2021/06/21 05:42:49;;;;;;;23.58;6.88;;;;;;;;;;5074148;28;20509;-70
2021/06/21 05:45:17;;;;;;;16.58;6.25;;;;;;;;;;5074353;28;20025;-70
2021/06/21 05:47:43;;;;;;;20.90;6.43;;;;;;;;;;5074414;28;20028;-69
2021/06/21 05:50:10;;;;;;;22.00;6.40;;;;;;;;;;5074179;28;20025;-70
2021/06/21 05:52:36;;;;;;;23.30;6.38;;;;;;;;;;5073134;28;20107;-69
2021/06/21 05:55:02;;;;;;;21.23;6.30;;;;;;;;;;5074022;28;20025;-70
2021/06/21 05:57:29;;;;;;;20.80;6.05;;;;;;;;;;5074212;28;20025;-69
2021/06/21 05:59:55;;;;;;;24.73;6.30;;;;;;;;;;5074235;28;20024;-72
2021/06/21 06:02:21;;;;;;;20.45;6.20;;;;;;;;;;5073987;28;20090;-69
2021/06/21 06:04:47;;;;;;;19.75;5.97;;;;;;;;;;5073860;28;20472;-69
2021/06/21 06:07:14;;;;;;;19.35;6.00;;;;;;;;;;5073755;28;20469;-69
2021/06/21 06:09:40;;;;;;;12.95;5.50;;;;;;;;;;5073841;28;20393;-70
2021/06/21 06:12:06;;;;;;;14.70;5.53;;;;;;;;;;5073899;28;20025;-69
2021/06/21 06:14:32;;;;;;;21.92;5.97;;;;;;;;;;5073753;28;20035;-73
2021/06/21 06:16:58;;;;;;;24.63;5.25;;;;;;;;;;5073493;28;20111;-69
2021/06/21 06:19:24;;;;;;;15.45;6.35;;;;;;;;;;5073426;28;20028;-69
2021/06/21 06:21:50;;;;;;;20.23;5.20;;;;;;;;;;5073636;28;20477;-70
2021/06/21 06:24:17;;;;;;;25.65;5.78;;;;;;;;;;5073850;28;20373;-69
2021/06/21 06:26:43;;;;;;;19.63;5.70;;;;;;;;;;5073445;28;20021;-73
2021/06/21 06:29:13;;;;;;;25.27;6.10;;;;;;;;;;5073611;28;20031;-73
2021/06/21 06:31:41;;;;;;;23.20;6.25;;;;;;;;;;5073747;28;20021;-72
2021/06/21 06:34:07;;;;;;;23.10;5.68;;;;;;;;;;5073436;28;20029;-69
2021/06/21 06:36:33;;;;;;;23.30;6.95;;;;;;;;;;5073764;28;20428;-73
2021/06/21 06:38:59;;;;;;;17.77;5.68;;;;;;;;;;5073077;28;20059;-69
2021/06/21 06:41:25;;;;;;;21.67;6.32;;;;;;;;;;5073361;28;20047;-70
2021/06/21 06:43:53;;;;;;;22.00;6.60;;;;;;;;;;5073598;28;20107;-73
2021/06/21 06:46:19;;;;;;;27.90;6.35;;;;;;;;;;5073404;28;20469;-69
2021/06/21 06:48:45;;;;;;;29.30;6.47;;;;;;;;;;5073144;28;20063;-69
2021/06/21 06:51:11;;;;;;;23.77;5.95;;;;;;;;;;5073105;28;20052;-70
2021/06/21 06:54:02;;;;;;;28.70;6.40;;;;;;;;;;5073274;28;20036;-73
2021/06/21 06:59:14;;;;;;;26.38;6.35;;;;;;;;;;5073239;28;20150;-69
2021/06/21 07:01:40;;;;;;;23.23;6.25;;;;;;;;;;5073213;28;20478;-69
2021/06/21 07:04:06;;;;;;;24.00;5.78;;;;;;;;;;5072993;28;20056;-69
2021/06/21 07:06:34;;;;;;;26.63;5.85;;;;;;;;;;5072612;28;20473;-69
2021/06/21 07:09:00;;;;;;;24.20;6.13;;;;;;;;;;5073220;28;20488;-73
2021/06/21 07:11:27;;;;;;;23.92;5.97;;;;;;;;;;5073043;28;20028;-73
2021/06/21 07:13:53;;;;;;;28.40;5.63;;;;;;;;;;5073069;28;20086;-69
2021/06/21 07:16:19;;;;;;;25.63;6.22;;;;;;;;;;5073155;28;20073;-69
2021/06/21 07:18:45;;;;;;;21.65;5.75;;;;;;;;;;5072820;28;20453;-69
2021/06/21 07:21:11;;;;;;;26.25;5.97;;;;;;;;;;5073217;28;20163;-69
2021/06/21 07:23:37;;;;;;;19.35;5.82;;;;;;;;;;5073111;28;20064;-69
2021/06/21 07:26:05;;;;;;;21.05;5.75;;;;;;;;;;5073021;28;20021;-69
2021/06/21 07:28:31;;;;;;;25.10;5.80;;;;;;;;;;5072891;28;20169;-72
2021/06/21 07:30:57;;;;;;;18.63;5.47;;;;;;;;;;5073046;28;20028;-73
2021/06/21 07:33:23;;;;;;;25.20;6.05;;;;;;;;;;5072905;28;20024;-73
2021/06/21 07:35:50;;;;;;;19.45;5.70;;;;;;;;;;5072894;28;20398;-69
2021/06/21 07:38:18;;;;;;;23.05;5.88;;;;;;;;;;5072856;28;20025;-73
2021/06/21 07:40:44;;;;;;;31.92;5.97;;;;;;;;;;5072791;28;20056;-73
2021/06/21 07:43:10;;;;;;;25.10;5.28;;;;;;;;;;5072839;28;20032;-70
2021/06/21 07:45:36;;;;;;;18.00;4.90;;;;;;;;;;5072925;28;20093;-69
2021/06/21 07:48:02;;;;;;;23.40;5.75;;;;;;;;;;5072902;28;20021;-69
2021/06/21 07:50:30;;;;;;;16.70;5.57;;;;;;;;;;5072720;28;20445;-73
2021/06/21 07:52:57;;;;;;;15.52;4.88;;;;;;;;;;5072476;28;20103;-69
2021/06/21 07:55:27;;;;;;;21.65;5.60;;;;;;;;;;5072585;28;20370;-69
2021/06/21 07:57:53;;;;;;;22.15;5.60;;;;;;;;;;5071464;28;20423;-69
2021/06/21 08:00:22;;;;;;;15.52;4.95;;;;;;;;;;5072833;28;20091;-69
2021/06/21 08:02:48;;;;;;;19.98;4.80;;;;;;;;;;5072713;28;20033;-69
2021/06/21 08:05:14;;;;;;;19.08;4.75;;;;;;;;;;5071144;28;20029;-69
2021/06/21 08:07:40;;;;;;;18.42;4.50;;;;;;;;;;5072433;28;20024;-70
2021/06/21 08:10:06;;;;;;;19.92;5.65;;;;;;;;;;5072504;28;20031;-69
2021/06/21 08:12:33;;;;;;;23.83;5.30;;;;;;;;;;5072665;28;20024;-70
2021/06/21 08:14:59;;;;;;;22.05;5.03;;;;;;;;;;5072601;28;20362;-70
2021/06/21 08:17:25;;;;;;;18.58;4.72;;;;;;;;;;5073990;28;20043;-71
2021/06/21 08:19:51;;;;;;;19.00;4.63;;;;;;;;;;5076022;28;20025;-73
2021/06/21 08:22:23;;;;;;;17.58;4.22;;;;;;;;;;5075843;28;20159;-69
2021/06/21 08:24:52;;;;;;;18.50;4.60;;;;;;;;;;5076103;28;20477;-69
2021/06/21 08:27:18;;;;;;;20.90;5.10;;;;;;;;;;5075774;28;20099;-70
2021/06/21 08:29:45;;;;;;;24.25;4.72;;;;;;;;;;5075523;28;20405;-72
2021/06/21 08:32:11;;;;;;;25.58;5.50;;;;;;;;;;5075709;28;20469;-70
2021/06/21 08:34:38;;;;;;;27.23;5.07;;;;;;;;;;5075454;28;20024;-70
2021/06/21 08:37:04;;;;;;;25.88;5.28;;;;;;;;;;5075703;28;20025;-69
2021/06/21 08:39:30;;;;;;;18.75;5.00;;;;;;;;;;5076159;28;20465;-70
2021/06/21 08:41:58;;;;;;;22.20;4.88;;;;;;;;;;5075463;28;20047;-70
2021/06/21 08:44:24;;;;;;;26.42;5.43;;;;;;;;;;5075634;28;20024;-70
2021/06/21 08:46:51;;;;;;;24.10;5.07;;;25.90;64.00;;;;;;5075513;28;20031;-69
2021/06/21 08:49:18;;;;;;;47.17;6.88;;;;;;;;;;5075614;28;20135;-70
2021/06/21 08:51:44;;;;;;;31.17;6.30;;;;;;;;;;5075544;28;20024;-69
2021/06/21 08:54:10;;;;;;;26.92;5.85;;;;;;;;;;5075435;28;20052;-69
2021/06/21 08:56:36;;;;;;;18.00;4.60;;;;;;;;;;5075452;28;20020;-69
2021/06/21 08:59:06;;;;;;;20.95;5.60;;;;;;;;;;5075432;28;20032;-69
2021/06/21 09:01:32;;;;;;;25.42;5.47;;;;;;;;;;5075062;28;20012;-69
2021/06/21 09:03:59;;;;;;;24.35;4.80;;;;;;;;;;5075092;28;20033;-69
2021/06/21 09:06:25;;;;;;;16.63;4.55;;;;;;;;;;5075091;28;20024;-69
2021/06/21 09:08:53;;;;;;;22.48;5.45;;;;;;;;;;5075015;28;20036;-69
2021/06/21 09:11:19;;;;;;;20.25;5.18;;;;;;;;;;5074983;28;20485;-69
2021/06/21 09:13:47;;;;;;;27.55;5.38;;;;;;;;;;5074868;28;20472;-70
2021/06/21 09:16:13;;;;;;;37.58;6.15;;;;;;;;;;5074924;28;20488;-69
2021/06/21 09:18:40;;;;;;;41.33;6.22;;;;;;;;;;5075151;28;20031;-69
2021/06/21 09:21:24;;;;;;;39.70;6.18;;;;;;;;;;5074860;28;20028;-70
2021/06/21 09:23:53;;;;;;;42.42;6.22;;;;;;;;;;5073452;28;20028;-69
2021/06/21 09:26:20;;;;;;;34.30;5.55;;;;;;;;;;5074583;28;20107;-69
2021/06/21 09:28:46;;;;;;;35.45;5.93;;;;;;;;;;5074380;28;20100;-69
2021/06/21 09:31:12;;;;;;;38.50;6.28;;;;;;;;;;5074671;28;20048;-73
2021/06/21 09:33:38;;;;;;;41.25;6.05;;;;;;;;;;5074410;28;20085;-69
2021/06/21 09:36:05;;;;;;;30.15;5.63;;;;;;;;;;5074715;28;20036;-69
2021/06/21 09:38:31;;;;;;;32.30;5.50;;;;;;;;;;5074557;28;20048;-70
2021/06/21 09:40:58;;;;;;;37.67;7.35;;;;;;;;;;5074248;28;20516;-69
2021/06/21 09:43:34;;;;;;;43.28;6.38;;;;;;;;;;5075349;28;20029;-69
2021/06/21 09:46:01;;;;;;;42.83;6.93;;;;;;;;;;5074308;28;20032;-69
2021/06/21 09:48:31;;;;;;;36.72;5.53;;;;;;;;;;5074128;28;20027;-69
2021/06/21 09:50:57;;;;;;;40.97;7.18;;;;;;;;;;5074206;28;20411;-69
2021/06/21 09:53:24;;;;;;;41.78;6.10;;;;;;;;;;5074405;28;20029;-69
2021/06/21 09:55:50;;;;;;;37.42;6.90;;;;;;;;;;5073828;28;20549;-70
2021/06/21 09:58:21;;;;;;;36.40;6.28;;;;;;;;;;5073940;28;20028;-69
2021/06/21 10:00:51;;;;;;;32.70;6.53;;;;;;;;;;5073817;28;20028;-70
2021/06/21 10:03:27;;;;;;;41.78;6.80;;;;;;;;;;5073798;28;20036;-70
2021/06/21 10:06:04;;;;;;;43.83;6.45;;;;;;;;;;5073911;28;20466;-69
2021/06/21 10:08:41;;;;;;;37.85;6.35;;;;;;;;;;5073956;28;20032;-69
2021/06/21 10:11:28;;;;;;;36.95;6.78;;;;;;;;;;5073809;28;20028;-69
2021/06/21 10:13:54;;;;;;;37.22;7.18;;;;;;;;;;5073895;28;20032;-69
2021/06/21 10:16:20;;;;;;;37.92;6.10;;;;;;;;;;5073710;28;20127;-70
2021/06/21 10:18:46;;;;;;;41.58;6.60;;;;;;;;;;5074043;28;20469;-70
2021/06/21 10:21:12;;;;;;;39.42;7.20;;;;;;;;;;5073573;28;20063;-70
2021/06/21 10:23:38;;;;;;;33.35;5.78;;;;;;;;;;5073376;28;20111;-70
2021/06/21 10:26:04;;;;;;;26.42;6.47;;;;;;;;;;5073714;28;20032;-74
2021/06/21 10:28:31;;;;;;;35.20;5.22;;;;;;;;;;5073687;28;20363;-70
2021/06/21 10:30:57;;;;;;;45.75;6.85;;;;;;;;;;5073423;28;20029;-70
2021/06/21 10:33:23;;;;;;;46.97;7.63;;;;;;;;;;5073453;28;20017;-70
2021/06/21 10:35:49;;;;;;;42.55;7.10;;;;;;;;;;5073397;28;20484;-70
2021/06/21 10:38:16;;;;;;;39.90;6.28;;;;;;;;;;5073290;28;20032;-70
2021/06/21 10:40:55;;;;;;;33.20;6.38;;;;;;;;;;5072333;28;20052;-70
2021/06/21 10:43:40;;;;;;;39.20;6.97;;;;;;;;;;5073170;28;20036;-70
2021/06/21 10:46:25;;;;;;;35.90;7.18;;;;;;;;;;5073170;28;20028;-70
2021/06/21 10:49:01;;;;;;;39.47;7.47;;;;;;;;;;5073220;28;20056;-70
2021/06/21 10:51:34;;;;;;;52.58;7.78;;;;;;;;;;5071716;28;20115;-69
2021/06/21 10:54:01;;;;;;;37.67;6.60;;;;;;;;;;5073172;28;20025;-70
2021/06/21 10:56:45;;;;;;;49.03;7.35;;;;;;;;;;5073194;28;20029;-70
2021/06/21 10:59:12;;;;;;;26.05;6.43;;;;;;;;;;5073051;28;20477;-70
2021/06/21 11:01:46;;;;;;;33.58;5.70;;;;;;;;;;5073114;28;20021;-70
2021/06/21 11:04:32;;;;;;;44.42;6.50;;;;;;;;;;5073100;28;20385;-70
2021/06/21 11:07:12;;;;;;;43.38;6.32;;;;;;;;;;5072981;28;20526;-70
2021/06/21 11:09:43;;;;;;;33.25;5.95;;;;;;;;;;5072987;28;20029;-70
2021/06/21 11:12:29;;;;;;;34.60;6.53;;;;;;;;;;5072973;28;20017;-70
2021/06/21 11:15:11;;;;;;;33.50;6.40;;;;;;;;;;5062741;28;20033;-70
2021/06/21 11:17:43;;;;;;;41.25;7.32;;;;;;;;;;5073394;28;20427;-70
2021/06/21 11:20:28;;;;;;;40.45;6.30;;;;;;;;;;5073073;28;20954;-70
2021/06/21 11:22:59;;;;;;;42.00;6.80;;;;;;;;;;5072775;28;20111;-70
2021/06/21 11:25:26;;;;;;;41.65;6.97;;;;;;;;;;5072738;28;20021;-70
2021/06/21 11:27:52;;;;;;;46.33;7.43;;;;;;;;;;5073080;28;20056;-70
2021/06/21 11:30:26;;;;;;;41.78;7.07;;;;;;;;;;5073036;28;20424;-70
2021/06/21 11:32:58;;;;;;;38.50;7.05;;;;;;;;;;5073019;28;20549;-70
2021/06/21 11:35:43;;;;;;;38.05;6.63;;;;;;;;;;5073092;28;20499;-69
2021/06/21 11:38:22;;;;;;;50.47;7.25;;;;;;;;;;5072477;28;20143;-70
2021/06/21 11:40:48;;;;;;;38.17;6.05;;;;;;;;;;5072667;28;20051;-70
2021/06/21 11:43:17;;;;;;;46.65;6.70;;;;;;;;;;5072801;28;20041;-69
2021/06/21 11:45:54;;;;;;;42.30;6.30;;;;;;;;;;5073041;28;20123;-69
2021/06/21 11:48:23;;;;;;;49.63;7.13;;;;;;;;;;5072722;28;20074;-70
2021/06/21 11:50:50;;;;;;;46.42;6.32;;;;;;;;;;5072784;28;20496;-70
2021/06/21 11:53:16;;;;;;;47.95;6.82;;;;;;;;;;5076501;28;20017;-70
2021/06/21 11:55:42;;;;;;;46.65;6.78;;;;;;;;;;5076526;28;20434;-70
2021/06/21 11:58:08;;;;;;;40.60;5.97;;;;;;;;;;5076434;28;20388;-70
2021/06/21 12:00:35;;;;;;;42.63;5.93;;;;;;;;;;5076082;28;20077;-70
2021/06/21 12:03:08;;;;;;;47.28;6.88;;;;;;;;;;5075963;28;20036;-70
2021/06/21 12:05:34;;;;;;;40.22;6.05;;;;;;;;;;5076160;28;20029;-70
2021/06/21 12:08:11;;;;;;;44.33;6.90;;;;;;;;;;5076125;28;20029;-70
2021/06/21 12:10:37;;;;;;;50.78;7.43;;;;;;;;;;5075962;28;20018;-69
2021/06/21 12:13:03;;;;;;;40.67;7.00;;;;;;;;;;5076127;28;20526;-70
2021/06/21 12:15:31;;;;;;;45.45;7.68;;;;;;;;;;5076008;28;20380;-74
2021/06/21 12:17:58;;;;;;;42.72;6.25;;;;;;;;;;5076050;28;20032;-70
2021/06/21 12:20:24;;;;;;;59.63;7.40;;;;;;;;;;5076104;28;20485;-70
2021/06/21 12:22:58;;;;;;;52.83;7.43;;;;;;;;;;5075692;28;20039;-70
2021/06/21 12:25:34;;;;;;;50.97;7.55;;;;;;;;;;5075812;28;20013;-70
2021/06/21 12:28:11;;;;;;;54.67;6.78;;;28.10;54.00;;;;;;5076115;28;20350;-70
2021/06/21 12:30:38;;;;;;;55.85;7.63;;;31.40;47.80;;;;;;5075991;28;20016;-70
2021/06/21 12:33:40;;;;;;;43.10;6.40;;;31.30;42.70;;;;;;5075749;28;20028;-70
2021/06/21 12:36:16;;;;;;;48.78;6.60;;;;;;;;;;5013800;28;20360;-70
2021/06/21 12:38:46;;;;;;;39.20;6.32;;;;;;;;;;5067638;28;20115;-70
2021/06/21 12:41:21;;;;;;;44.03;6.63;;;;;;;;;;5075364;28;20051;-70
2021/06/21 12:43:58;;;;;;;43.70;6.50;;;;;;;;;;5075581;28;20043;-70
2021/06/21 12:46:28;;;;;;;47.75;7.00;;;;;;;;;;5075576;28;20027;-70
2021/06/21 12:48:54;;;;;;;47.70;7.32;;;;;;;;;;5075334;28;20048;-70
2021/06/21 12:51:21;;;;;;;46.50;6.93;;;;;;;;;;5075248;28;20449;-70
2021/06/21 12:53:49;;;;;;;46.30;6.40;;;;;;;;;;5075635;28;20481;-70
2021/06/21 12:56:19;;;;;;;53.63;6.57;;;;;;;;;;5075392;28;20095;-70
2021/06/21 12:58:45;;;;;;;57.83;8.13;;;;;;;;;;5075138;28;20033;-71
2021/06/21 13:01:20;;;;;;;49.00;7.47;;;;;;;;;;5075209;28;20086;-74
2021/06/21 13:03:46;;;;;;;53.03;6.78;;;;;;;;;;5074254;28;20034;-70
2021/06/21 13:06:12;;;;;;;37.45;6.70;;;;;;;;;;5075564;28;20024;-70
2021/06/21 13:08:39;;;;;;;56.28;8.18;;;;;;;;;;5075277;28;20391;-70
2021/06/21 13:11:09;;;;;;;41.15;6.47;;;;;;;;;;5074921;28;20032;-70
2021/06/21 13:13:38;;;;;;;44.15;6.70;;;;;;;;;;5074904;28;20027;-70
2021/06/21 13:16:12;;;;;;;47.92;6.65;;;;;;;;;;5074917;28;20417;-70
2021/06/21 13:18:59;;;;;;;49.80;6.55;;;;;;;;;;5073699;28;20024;-70
2021/06/21 13:21:41;;;;;;;51.58;7.22;;;;;;;;;;5074917;28;20408;-70
2021/06/21 13:24:08;;;;;;;37.85;6.57;;;;;;;;;;5074962;28;20392;-70
2021/06/21 13:26:36;;;;;;;46.85;7.07;;;;;;;;;;5074599;28;20089;-71
2021/06/21 13:29:21;;;;;;;47.03;6.68;;;;;;;;;;5074567;28;20029;-70
2021/06/21 13:31:47;;;;;;;55.15;7.40;;;;;;;;;;5074800;28;20099;-70
2021/06/21 13:34:14;;;;;;;38.83;7.18;;;;;;;;;;5074828;28;20028;-70
2021/06/21 13:36:58;;;;;;;41.67;6.53;;;;;;;;;;5074557;28;20021;-74
2021/06/21 13:39:24;;;;;;;50.40;7.05;;;;;;;;;;5074219;28;20028;-70
2021/06/21 13:42:00;;;;;;;50.63;6.72;;;;;;;;;;5074388;28;20059;-70
2021/06/21 13:44:26;;;;;;;53.58;8.05;;;;;;;;;;5074399;28;20078;-70
2021/06/21 13:46:53;;;;;;;37.28;7.15;;;;;;;;;;5074681;28;20023;-70
2021/06/21 13:49:22;;;;;;;43.67;6.65;;;;;;;;;;5074340;28;20096;-74
2021/06/21 13:52:01;;;;;;;49.38;7.05;;;;;;;;;;5074391;28;20013;-70
2021/06/21 13:54:28;;;;;;;48.33;7.20;;;;;;;;;;5074269;28;20492;-70
2021/06/21 13:57:08;;;;;;;53.08;7.10;;;;;;;;;;5074103;28;20473;-70
2021/06/21 13:59:47;;;;;;;29.48;6.00;;;;;;;;;;5073893;28;20024;-71
2021/06/21 14:02:30;;;;;;;54.92;7.03;;;;;;;;;;5074159;28;20102;-70
2021/06/21 14:04:56;;;;;;;41.92;7.15;;;;;;;;;;5074203;28;20025;-74
2021/06/21 14:07:22;;;;;;;41.20;6.03;;;;;;;;;;5074134;28;20067;-70
2021/06/21 14:09:58;;;;;;;50.88;7.25;;;;;;;;;;5073664;28;20031;-70
2021/06/21 14:12:25;;;;;;;54.67;8.27;;;;;;;;;;5073722;28;20028;-70
2021/06/21 14:14:51;;;;;;;43.72;8.57;;;;;;;;;;5073596;28;20031;-70
2021/06/21 14:17:19;;;;;;;47.55;7.60;;;;;;;;;;5073818;28;20020;-70
2021/06/21 14:19:46;;;;;;;46.95;7.78;;;;;;;;;;5072475;28;20388;-70
2021/06/21 14:22:12;;;;;;;49.65;7.57;;;;;;;;;;5073415;28;20431;-69
2021/06/21 14:24:38;;;;;;;42.67;7.20;;;;;;;;;;5073829;28;20035;-70
2021/06/21 14:27:05;;;;;;;49.70;8.25;;;;;;;;;;5073631;28;20020;-70
2021/06/21 14:29:31;;;;;;;52.10;8.27;;;;;;;;;;5073555;28;20165;-70
2021/06/21 14:31:57;;;;;;;49.53;7.55;;;;;;;;;;5073571;28;20432;-70
2021/06/21 14:34:23;;;;;;;38.03;7.57;;;;;;;;;;5072256;28;20113;-70
2021/06/21 14:36:49;;;;;;;56.15;8.25;;;;;;;;;;5073467;28;20020;-70